Perham, MN (56573)

11:56 AM CST on December 07, 2016 (GMT -0600)
NYM School | | Change Station
Active Advisory: Winter Weather Advisory

Elev 1404 ft 46.52 °N, 95.38 °W | Updated 1 minute ago

Light Snow
Light Snow
13.7 °F
Feels Like -2 °F
N
16.0
Wind Variable Wind from WSW
Gusts 29.0 mph

Today
High -- | Low -- °F
--% Chance of Precip.
Yesterday
High -- | Low -- °F
Precip. -- in
Pressure 29.95 in
Visibility 4.0 miles
Clouds Overcast 2300 ft
Windchill -2 °F
Dew Point 10 °F
Humidity 85%
Rainfall 0.00 in
Snow Depth Not available.
7:53 AM 4:34 PM
First Quarter, 54% visible
METAR KADC 071752Z AUTO 27016G21KT 4SM -SN OVC023 M11/M14 A2995 RMK AO2
Pressure 29.95 in
Visibility 4.0 miles
Clouds Overcast 2300 ft
Windchill -2 °F
Dew Point 10 °F
Humidity 85%
Rainfall 0.00 in
Snow Depth Not available.
7:53 AM 4:34 PM
First Quarter, 54% visible
METAR KADC 071752Z AUTO 27016G21KT 4SM -SN OVC023 M11/M14 A2995 RMK AO2

10-Day Weather Forecast

Almanac

Astronomy

Dec. 07, 2016 Rise Set
Actual Time
Civil Twilight
Nautical Twilight
Astronomical Twilight
Moon
Length of Visible Light
Length of Day
Tomorrow will be .
, % of the Moon is Illuminated

Today's Extremes

State Highs State Lows

Community

WunderPhotos

Upload Photos

1,956,156 photos uploaded!

WunderBlog® & News

Nearby

Air Quality

  Air Quality AQ Index Pollutant
Not available.

Snow Depth

Station Depth Elevation

Earthquake Activity

City Distance Mag. Time & Date
Minimum magnitude displayed is 2.5.

Coastal Water Temperatures

Place Temperature

Stations

Nearby Weather Stations

Station Location Temp. Windchill Dew Point Humidity Wind Precip. Elev Updated Type
                   

Watches & Warnings

Winter Weather Advisory
Issued: 6:02 AM CST Dec. 7, 2016 – National Weather Service

... Winter Weather Advisory remains in effect until 6 PM CST this
evening...

* additional snow accumulations... 1 to 3 inches.

* Winds... west 15 to 25 mph with gusts up to 40 mph.

* Visibilities... local areas of one half mile or less in open
areas.

Precautionary/preparedness actions...

A Winter Weather Advisory means that periods of snow will cause
travel difficulties. Be prepared for slippery roads and limited
visibilities... and use caution while driving. The latest Road
conditions for the state you are calling from can be obtained by
calling 5 1 1.



Dtr